createdAt,value
2022-08-22T00:00:18.638Z,99.90
2022-08-22T00:02:44.178Z,98.40
2022-08-22T00:02:48.496Z,93.00
2022-08-22T00:02:48.678Z,93.50
2022-08-22T00:03:16.216Z,99.90
2022-08-22T00:03:17.650Z,99.90
2022-08-22T00:05:59.312Z,99.90
2022-08-22T00:08:34.887Z,99.90
2022-08-22T00:11:12.339Z,99.90
2022-08-22T00:13:46.799Z,99.90
2022-08-22T00:16:28.910Z,99.90
2022-08-22T00:19:07.991Z,99.90
2022-08-22T00:21:43.503Z,99.90
2022-08-22T00:24:23.499Z,99.90
2022-08-22T00:26:58.618Z,99.90
2022-08-22T00:29:33.386Z,99.90
2022-08-22T00:32:11.272Z,99.90
2022-08-22T00:34:46.844Z,99.90
2022-08-22T00:37:21.543Z,99.90
2022-08-22T00:39:57.209Z,99.90
2022-08-22T00:42:48.808Z,99.90
2022-08-22T00:45:53.002Z,99.90
2022-08-22T00:48:59.674Z,99.90
2022-08-22T00:52:00.737Z,99.90
2022-08-22T00:54:45.474Z,99.90
2022-08-22T00:57:46.633Z,99.90
2022-08-22T01:00:21.052Z,99.90
2022-08-22T01:03:34.019Z,99.90
2022-08-22T01:06:18.807Z,99.90
2022-08-22T01:09:03.920Z,99.90
2022-08-22T01:11:52.819Z,99.90
2022-08-22T01:14:36.996Z,99.90
2022-08-22T01:17:40.875Z,99.90
2022-08-22T01:20:44.848Z,99.90
2022-08-22T01:23:56.285Z,99.90
2022-08-22T01:27:01.231Z,99.90
2022-08-22T01:30:02.902Z,99.90
2022-08-22T01:33:07.585Z,99.90
2022-08-22T01:36:16.160Z,99.90
2022-08-22T01:39:17.228Z,99.90
2022-08-22T01:42:05.668Z,99.90
2022-08-22T01:45:07.667Z,99.90
2022-08-22T01:47:42.117Z,99.90
2022-08-22T01:50:21.978Z,99.90
2022-08-22T01:53:00.559Z,99.90
2022-08-22T01:55:34.526Z,99.90
2022-08-22T01:58:14.998Z,99.90
2022-08-22T02:01:01.833Z,99.90
2022-08-22T02:03:35.326Z,99.90
2022-08-22T02:06:08.929Z,99.90
2022-08-22T02:08:51.583Z,99.90
2022-08-22T02:11:53.959Z,99.90
2022-08-22T02:14:37.659Z,99.90
2022-08-22T02:17:15.910Z,99.90
2022-08-22T02:19:52.491Z,99.90
2022-08-22T02:22:30.708Z,99.90
2022-08-22T02:25:11.543Z,99.90
2022-08-22T02:27:50.188Z,99.90
2022-08-22T02:30:21.996Z,99.90
2022-08-22T02:32:59.348Z,99.90
2022-08-22T02:35:33.517Z,99.90
2022-08-22T02:38:16.862Z,99.90
2022-08-22T02:40:54.365Z,99.90
2022-08-22T02:43:28.110Z,99.90
2022-08-22T02:46:03.424Z,99.90
2022-08-22T02:48:43.469Z,99.90
2022-08-22T02:51:20.099Z,99.90
2022-08-22T02:53:56.135Z,99.90
2022-08-22T02:56:32.417Z,99.90
2022-08-22T02:59:16.586Z,99.90
2022-08-22T03:01:47.720Z,99.90
2022-08-22T03:04:22.355Z,99.90
2022-08-22T03:07:11.204Z,99.90
2022-08-22T03:09:47.091Z,99.90
2022-08-22T03:12:22.648Z,99.90
2022-08-22T03:15:00.108Z,99.90
2022-08-22T03:17:32.513Z,99.90
2022-08-22T03:20:06.692Z,99.90
2022-08-22T03:22:43.560Z,99.90
2022-08-22T03:25:20.938Z,99.90
2022-08-22T03:27:56.747Z,99.90
2022-08-22T03:30:33.870Z,99.90
2022-08-22T03:33:17.729Z,99.90
2022-08-22T03:36:03.841Z,99.90
2022-08-22T03:38:46.685Z,99.90
2022-08-22T03:41:33.809Z,99.90
2022-08-22T03:44:34.459Z,99.90
2022-08-22T03:47:35.990Z,99.90
2022-08-22T03:50:37.076Z,99.90
2022-08-22T03:53:38.201Z,99.90
2022-08-22T03:56:42.524Z,99.90
2022-08-22T03:59:46.903Z,99.90
2022-08-22T04:02:43.411Z,99.90
2022-08-22T04:05:38.802Z,99.90
2022-08-22T04:08:26.522Z,99.90
2022-08-22T04:11:25.451Z,99.90
2022-08-22T04:14:13.949Z,99.90
2022-08-22T04:16:58.664Z,99.90
2022-08-22T04:19:50.173Z,99.90
2022-08-22T04:22:44.524Z,99.90
2022-08-22T04:25:17.172Z,99.90
2022-08-22T04:28:03.887Z,99.90
2022-08-22T04:30:37.295Z,99.90
2022-08-22T04:33:12.148Z,99.90
2022-08-22T04:35:45.297Z,99.90
2022-08-22T04:38:16.832Z,99.90
2022-08-22T04:40:56.167Z,99.90
2022-08-22T04:43:30.973Z,99.90
2022-08-22T04:46:05.436Z,99.90
2022-08-22T04:48:42.492Z,99.90
2022-08-22T04:51:23.152Z,99.90
2022-08-22T04:54:34.474Z,99.90
2022-08-22T04:57:21.600Z,99.90
2022-08-22T04:59:51.495Z,99.90
2022-08-22T05:02:24.144Z,99.90
2022-08-22T05:05:01.696Z,99.90
2022-08-22T05:07:36.453Z,99.90
2022-08-22T05:10:12.005Z,99.90
2022-08-22T05:12:44.577Z,99.90
2022-08-22T05:15:23.120Z,99.90
2022-08-22T05:17:54.520Z,99.90
2022-08-22T05:20:27.208Z,99.90
2022-08-22T05:22:59.984Z,99.90
2022-08-22T05:25:34.701Z,99.90
2022-08-22T05:28:12.035Z,99.90
2022-08-22T05:30:41.266Z,99.90
2022-08-22T05:33:19.318Z,99.90
2022-08-22T05:35:57.923Z,99.90
2022-08-22T05:38:31.409Z,99.90
2022-08-22T05:41:06.565Z,99.90
2022-08-22T05:43:39.463Z,99.90
2022-08-22T05:46:10.510Z,99.90
2022-08-22T05:48:43.698Z,99.90
2022-08-22T05:51:18.980Z,99.90
2022-08-22T05:53:50.732Z,99.90
2022-08-22T05:56:26.400Z,99.90
2022-08-22T05:59:00.014Z,99.90
2022-08-22T06:01:32.881Z,99.90
2022-08-22T06:04:07.044Z,99.90
2022-08-22T06:06:42.600Z,99.90
2022-08-22T06:09:19.080Z,99.90
2022-08-22T06:11:53.924Z,99.90
2022-08-22T06:14:33.680Z,99.90
2022-08-22T06:17:10.198Z,99.90
2022-08-22T06:19:42.377Z,99.90
2022-08-22T06:22:18.790Z,99.90
2022-08-22T06:24:49.147Z,99.90
2022-08-22T06:27:20.656Z,99.90
2022-08-22T06:29:53.111Z,99.90
2022-08-22T06:32:58.563Z,99.90
2022-08-22T06:35:21.554Z,99.90
2022-08-22T06:37:54.143Z,99.50
2022-08-22T06:40:22.866Z,99.40
2022-08-22T06:42:52.967Z,99.40
2022-08-22T06:45:24.703Z,99.40
2022-08-22T06:48:00.569Z,99.40
2022-08-22T06:50:33.275Z,99.40
2022-08-22T06:53:09.963Z,99.20
2022-08-22T06:55:42.204Z,99.40
2022-08-22T06:58:16.858Z,99.10
2022-08-22T07:00:58.830Z,98.90
2022-08-22T07:03:38.114Z,99.10
2022-08-22T07:06:06.784Z,99.00
2022-08-22T07:08:39.147Z,98.90
2022-08-22T07:11:14.863Z,98.70
2022-08-22T07:13:48.839Z,98.70
2022-08-22T07:16:18.304Z,98.70
2022-08-22T07:18:51.644Z,98.60
2022-08-22T07:21:28.661Z,98.50
2022-08-22T07:24:01.580Z,98.20
2022-08-22T07:26:34.245Z,98.30
2022-08-22T07:29:11.256Z,98.40
2022-08-22T07:31:44.954Z,98.40
2022-08-22T07:34:38.319Z,98.50
2022-08-22T07:37:13.338Z,98.70
2022-08-22T07:39:51.358Z,98.60
2022-08-22T07:42:29.730Z,98.70
2022-08-22T07:45:06.853Z,98.60
2022-08-22T07:47:52.229Z,98.70
2022-08-22T07:50:26.388Z,98.60
2022-08-22T07:52:59.304Z,98.50
2022-08-22T07:55:29.220Z,98.10
2022-08-22T07:58:02.125Z,98.10
2022-08-22T08:00:34.360Z,98.00
2022-08-22T08:03:07.265Z,97.60
2022-08-22T08:05:38.582Z,97.50
2022-08-22T08:08:13.786Z,97.20
2022-08-22T08:10:45.931Z,97.40
2022-08-22T08:13:21.257Z,97.20
2022-08-22T08:15:51.992Z,96.60
2022-08-22T08:18:25.876Z,96.30
2022-08-22T08:20:58.240Z,95.50
2022-08-22T08:23:30.067Z,95.10
2022-08-22T08:26:09.300Z,95.00
2022-08-22T08:28:42.719Z,93.70
2022-08-22T08:31:18.910Z,93.70
2022-08-22T08:33:51.171Z,93.20
2022-08-22T08:36:36.011Z,92.90
2022-08-22T08:39:17.216Z,92.60
2022-08-22T08:42:01.901Z,92.90
2022-08-22T08:44:57.011Z,92.70
2022-08-22T08:47:39.860Z,92.60
2022-08-22T08:50:24.862Z,91.50
2022-08-22T08:53:06.663Z,91.90
2022-08-22T08:55:46.972Z,92.50
2022-08-22T08:58:34.143Z,92.70
2022-08-22T09:01:16.576Z,91.40
2022-08-22T09:04:16.651Z,90.70
2022-08-22T09:07:01.274Z,90.80
2022-08-22T09:09:44.179Z,90.10
2022-08-22T09:12:28.807Z,90.70
2022-08-22T09:15:17.064Z,90.00
2022-08-22T09:18:29.381Z,85.80
2022-08-22T09:21:14.907Z,88.20
2022-08-22T09:24:35.434Z,87.50
2022-08-22T09:27:10.172Z,84.60
2022-08-22T09:29:51.522Z,87.50
2022-08-22T09:32:40.652Z,87.60
2022-08-22T09:35:18.664Z,84.80
2022-08-22T09:38:05.929Z,85.60
2022-08-22T09:40:40.563Z,87.20
2022-08-22T09:43:19.867Z,86.40
2022-08-22T09:46:01.849Z,84.40
2022-08-22T09:48:42.962Z,84.20
2022-08-22T09:51:32.464Z,84.60
2022-08-22T09:54:20.649Z,84.50
2022-08-22T09:56:58.307Z,87.00
2022-08-22T09:59:36.818Z,85.20
2022-08-22T10:02:22.903Z,81.10
2022-08-22T10:05:00.195Z,81.30
2022-08-22T10:07:56.270Z,81.70
2022-08-22T10:10:37.869Z,80.00
2022-08-22T10:13:17.348Z,79.50
2022-08-22T10:15:54.856Z,77.60
2022-08-22T10:18:43.970Z,81.10
2022-08-22T10:21:35.323Z,77.10
2022-08-22T10:24:25.279Z,79.50
2022-08-22T10:26:57.360Z,78.20
2022-08-22T10:29:42.283Z,76.40
2022-08-22T10:32:27.419Z,74.30
2022-08-22T10:35:00.158Z,75.20
2022-08-22T10:37:37.570Z,76.20
2022-08-22T10:40:15.238Z,75.60
2022-08-22T10:42:50.389Z,74.80
2022-08-22T10:45:35.584Z,74.80
2022-08-22T10:48:44.543Z,76.10
2022-08-22T10:51:36.820Z,75.40
2022-08-22T10:54:22.556Z,76.90
2022-08-22T10:57:00.919Z,77.00
2022-08-22T10:59:39.450Z,77.90
2022-08-22T11:02:37.399Z,75.90
2022-08-22T11:05:33.809Z,76.80
2022-08-22T11:08:34.945Z,71.30
2022-08-22T11:11:18.092Z,74.80
2022-08-22T11:14:07.504Z,73.40
2022-08-22T11:16:55.074Z,75.90
2022-08-22T11:19:39.168Z,74.60
2022-08-22T11:22:25.655Z,75.10
2022-08-22T11:25:43.532Z,75.50
2022-08-22T11:28:31.630Z,75.00
2022-08-22T11:31:10.035Z,74.70
2022-08-22T11:33:47.108Z,73.50
2022-08-22T11:36:37.909Z,73.80
2022-08-22T11:39:20.860Z,74.00
2022-08-22T11:41:59.883Z,71.60
2022-08-22T11:44:34.367Z,72.60
2022-08-22T11:47:08.905Z,71.30
2022-08-22T11:49:51.857Z,70.10
2022-08-22T11:52:52.060Z,75.00
2022-08-22T11:55:34.516Z,70.00
2022-08-22T11:58:19.346Z,70.90
2022-08-22T12:00:57.644Z,70.80
2022-08-22T12:03:43.556Z,70.10
2022-08-22T12:06:49.859Z,70.10
2022-08-22T12:09:51.880Z,70.00
2022-08-22T12:12:27.354Z,69.40
2022-08-22T12:15:04.387Z,69.30
2022-08-22T12:18:21.226Z,67.90
2022-08-22T12:21:17.711Z,69.50
2022-08-22T12:24:19.352Z,68.90
2022-08-22T12:27:06.495Z,70.50
2022-08-22T12:29:44.872Z,68.10
2022-08-22T12:32:52.571Z,68.10
2022-08-22T12:35:35.394Z,69.20
2022-08-22T12:38:28.968Z,66.50
2022-08-22T12:41:14.758Z,64.20
2022-08-22T12:44:03.557Z,64.60
2022-08-22T12:46:46.575Z,66.40
2022-08-22T12:49:44.940Z,63.80
2022-08-22T12:52:34.657Z,65.20
2022-08-22T12:55:46.831Z,60.70
2022-08-22T12:58:33.957Z,60.80
2022-08-22T13:01:07.203Z,61.00
2022-08-22T13:03:41.885Z,63.60
2022-08-22T13:07:00.386Z,56.70
2022-08-22T13:09:33.760Z,59.50
2022-08-22T13:12:07.188Z,57.50
2022-08-22T13:14:37.319Z,58.50
2022-08-22T13:17:10.243Z,58.40
2022-08-22T13:20:02.989Z,57.70
2022-08-22T13:22:36.439Z,58.20
2022-08-22T13:25:25.660Z,60.10
2022-08-22T13:28:34.049Z,59.00
2022-08-22T13:31:09.860Z,60.30
2022-08-22T13:33:47.010Z,60.20
2022-08-22T13:36:18.879Z,62.20
2022-08-22T13:38:53.304Z,62.60
2022-08-22T13:41:27.389Z,61.80
2022-08-22T13:44:15.250Z,60.00
2022-08-22T13:47:03.974Z,62.00
2022-08-22T13:49:34.457Z,64.40
2022-08-22T13:52:29.394Z,59.90
2022-08-22T13:55:02.271Z,59.50
2022-08-22T13:57:35.819Z,61.00
2022-08-22T14:00:11.680Z,60.60
2022-08-22T14:03:05.334Z,60.80
2022-08-22T14:05:36.997Z,62.30
2022-08-22T14:08:13.874Z,62.40
2022-08-22T14:10:52.236Z,59.70
2022-08-22T14:13:39.135Z,60.40
2022-08-22T14:16:15.133Z,59.80
2022-08-22T14:18:50.419Z,61.20
2022-08-22T14:21:40.152Z,62.10
2022-08-22T14:24:18.975Z,59.80
2022-08-22T14:26:59.256Z,60.10
2022-08-22T14:29:43.091Z,58.70
2022-08-22T14:32:37.368Z,59.60
2022-08-22T14:35:21.702Z,61.80
2022-08-22T14:38:17.747Z,58.50
2022-08-22T14:40:48.256Z,60.00
2022-08-22T14:43:40.382Z,60.10
2022-08-22T14:46:14.265Z,62.20
2022-08-22T14:48:47.985Z,63.30
2022-08-22T14:51:22.454Z,61.70
2022-08-22T14:53:51.584Z,61.80
2022-08-22T14:56:24.399Z,58.20
2022-08-22T14:58:56.012Z,59.50
2022-08-22T15:01:29.936Z,60.40
2022-08-22T15:04:04.872Z,59.00
2022-08-22T15:06:37.124Z,58.60
2022-08-22T15:09:08.347Z,58.20
2022-08-22T15:11:42.203Z,57.70
2022-08-22T15:14:16.061Z,60.20
2022-08-22T15:16:53.318Z,62.20
2022-08-22T15:19:27.481Z,62.50
2022-08-22T15:22:11.353Z,60.10
2022-08-22T15:24:44.887Z,59.90
2022-08-22T15:27:13.563Z,61.10
2022-08-22T15:29:51.591Z,60.00
2022-08-22T15:32:26.592Z,59.20
2022-08-22T15:35:04.427Z,60.50
2022-08-22T15:37:34.345Z,61.70
2022-08-22T15:40:12.724Z,62.00
2022-08-22T15:42:44.959Z,57.80
2022-08-22T15:45:30.596Z,59.00
2022-08-22T15:48:08.173Z,59.80
2022-08-22T15:50:41.970Z,58.90
2022-08-22T15:53:16.171Z,58.70
2022-08-22T15:56:21.020Z,59.40
2022-08-22T15:59:10.403Z,60.70
2022-08-22T16:01:44.902Z,61.20
2022-08-22T16:04:34.267Z,61.80
2022-08-22T16:07:05.405Z,58.70
2022-08-22T16:09:42.752Z,61.70
2022-08-22T16:12:30.971Z,62.00
2022-08-22T16:15:01.023Z,59.50
2022-08-22T16:17:53.221Z,57.90
2022-08-22T16:21:01.389Z,58.20
2022-08-22T16:24:09.775Z,57.60
2022-08-22T16:26:39.612Z,57.40
2022-08-22T16:29:31.036Z,59.60
2022-08-22T16:32:09.132Z,61.20
2022-08-22T16:34:43.915Z,62.70
2022-08-22T16:37:47.528Z,62.70
2022-08-22T16:40:25.348Z,59.90
2022-08-22T16:43:13.703Z,61.90
2022-08-22T16:45:45.397Z,62.90
2022-08-22T16:48:31.626Z,62.80
2022-08-22T16:51:05.939Z,62.20
2022-08-22T16:54:09.777Z,62.00
2022-08-22T16:56:54.500Z,60.90
2022-08-22T16:59:38.832Z,61.10
2022-08-22T17:02:33.052Z,62.50
2022-08-22T17:05:15.527Z,60.40
2022-08-22T17:07:54.610Z,62.70
2022-08-22T17:10:47.197Z,63.40
2022-08-22T17:13:32.841Z,65.10
2022-08-22T17:16:24.896Z,66.00
2022-08-22T17:19:04.967Z,66.40
2022-08-22T17:21:50.613Z,68.20
2022-08-22T17:24:32.012Z,68.30
2022-08-22T17:27:08.616Z,68.70
2022-08-22T17:29:53.671Z,68.90
2022-08-22T17:32:33.455Z,69.10
2022-08-22T17:35:15.967Z,68.20
2022-08-22T17:37:55.574Z,69.60
2022-08-22T17:40:37.636Z,69.60
2022-08-22T17:43:33.676Z,69.30
2022-08-22T17:46:36.152Z,70.10
2022-08-22T17:49:18.006Z,69.80
2022-08-22T17:51:52.289Z,70.70
2022-08-22T17:54:29.530Z,70.90
2022-08-22T17:57:05.798Z,71.40
2022-08-22T17:59:47.551Z,73.20
2022-08-22T18:02:24.706Z,73.20
2022-08-22T18:05:03.001Z,73.70
2022-08-22T18:07:40.865Z,73.50
2022-08-22T18:10:21.339Z,73.90
2022-08-22T18:12:57.206Z,74.10
2022-08-22T18:15:31.832Z,74.80
2022-08-22T18:18:06.348Z,75.10
2022-08-22T18:20:39.267Z,75.50
2022-08-22T18:23:21.724Z,75.30
2022-08-22T18:26:20.121Z,75.40
2022-08-22T18:28:53.364Z,75.80
2022-08-22T18:31:37.731Z,76.60
2022-08-22T18:34:19.640Z,76.70
2022-08-22T18:36:55.431Z,77.30
2022-08-22T18:39:29.259Z,78.00
2022-08-22T18:42:04.755Z,77.80
2022-08-22T18:44:39.392Z,78.40
2022-08-22T18:47:17.719Z,78.30
2022-08-22T18:49:54.024Z,78.80
2022-08-22T18:52:40.773Z,79.60
2022-08-22T18:55:38.440Z,79.60
2022-08-22T18:58:34.223Z,80.10
2022-08-22T19:01:24.878Z,80.00
2022-08-22T19:04:21.732Z,80.20
2022-08-22T19:07:23.256Z,80.90
2022-08-22T19:10:34.323Z,81.70
2022-08-22T19:13:33.099Z,82.70
2022-08-22T19:16:23.276Z,83.90
2022-08-22T19:18:55.979Z,84.40
2022-08-22T19:21:46.090Z,84.90
2022-08-22T19:24:57.581Z,84.80
2022-08-22T19:27:31.095Z,86.00
2022-08-22T19:30:02.749Z,86.40
2022-08-22T19:33:04.219Z,87.70
2022-08-22T19:36:08.140Z,88.10
2022-08-22T19:38:55.645Z,88.70
2022-08-22T19:41:46.658Z,89.10
2022-08-22T19:44:35.511Z,89.50
2022-08-22T19:47:16.976Z,90.10
2022-08-22T19:49:48.732Z,90.10
2022-08-22T19:52:26.545Z,90.00
2022-08-22T19:55:02.644Z,90.20
2022-08-22T19:57:40.464Z,90.30
2022-08-22T20:00:13.525Z,90.30
2022-08-22T20:02:58.739Z,90.70
2022-08-22T20:05:36.975Z,90.80
2022-08-22T20:08:25.514Z,90.80
2022-08-22T20:11:03.898Z,90.50
2022-08-22T20:13:35.660Z,90.00
2022-08-22T20:16:13.483Z,89.10
2022-08-22T20:19:18.500Z,88.70
2022-08-22T20:21:56.311Z,88.60
2022-08-22T20:24:34.398Z,89.40
2022-08-22T20:27:14.356Z,90.00
2022-08-22T20:29:54.408Z,90.40
2022-08-22T20:32:25.099Z,90.60
2022-08-22T20:34:59.001Z,90.60
2022-08-22T20:37:56.152Z,90.90
2022-08-22T20:40:55.571Z,90.80
2022-08-22T20:43:29.087Z,91.00
2022-08-22T20:46:12.608Z,91.00
2022-08-22T20:48:44.729Z,91.10
2022-08-22T20:51:17.333Z,91.50
2022-08-22T20:53:53.027Z,91.80
2022-08-22T20:56:34.023Z,91.80
2022-08-22T20:59:18.100Z,92.10
2022-08-22T21:01:49.629Z,92.10
2022-08-22T21:04:20.855Z,92.40
2022-08-22T21:06:58.878Z,92.50
2022-08-22T21:09:45.011Z,92.70
2022-08-22T21:12:13.817Z,92.80
2022-08-22T21:14:46.187Z,92.70
2022-08-22T21:17:22.294Z,92.80
2022-08-22T21:19:50.862Z,93.10
2022-08-22T21:22:27.785Z,93.30
2022-08-22T21:24:58.071Z,93.40
2022-08-22T21:27:31.232Z,93.40
2022-08-22T21:30:01.191Z,93.70
2022-08-22T21:32:35.360Z,93.90
2022-08-22T21:35:05.783Z,93.90
2022-08-22T21:37:39.795Z,94.20
2022-08-22T21:40:16.331Z,94.40
2022-08-22T21:42:46.503Z,94.40
2022-08-22T21:45:28.385Z,94.60
2022-08-22T21:47:58.488Z,94.50
2022-08-22T21:50:34.606Z,94.70
2022-08-22T21:53:13.107Z,94.80
2022-08-22T21:55:44.647Z,95.20
2022-08-22T21:58:35.831Z,95.00
2022-08-22T22:01:28.350Z,94.80
2022-08-22T22:03:59.757Z,95.00
2022-08-22T22:06:28.495Z,95.50
2022-08-22T22:08:56.844Z,95.30
2022-08-22T22:11:25.166Z,95.30
2022-08-22T22:13:53.495Z,95.20
2022-08-22T22:16:28.320Z,95.20
2022-08-22T22:18:57.946Z,95.20
2022-08-22T22:21:26.311Z,95.20
2022-08-22T22:23:54.567Z,95.20
2022-08-22T22:26:28.580Z,95.40
2022-08-22T22:28:58.655Z,95.40
2022-08-22T22:31:27.019Z,95.50
2022-08-22T22:33:55.328Z,95.70
2022-08-22T22:36:27.600Z,95.90
2022-08-22T22:38:56.012Z,96.30
2022-08-22T22:41:25.634Z,96.20
2022-08-22T22:43:54.478Z,96.10
2022-08-22T22:46:23.844Z,96.40
2022-08-22T22:48:52.245Z,96.50
2022-08-22T22:51:20.663Z,96.70
2022-08-22T22:53:50.395Z,96.80
2022-08-22T22:56:22.332Z,96.90
2022-08-22T22:59:00.741Z,96.90
2022-08-22T23:01:31.973Z,97.40
2022-08-22T23:04:05.669Z,97.40
2022-08-22T23:06:34.689Z,97.80
2022-08-22T23:09:04.628Z,98.00
2022-08-22T23:11:32.939Z,98.00
2022-08-22T23:14:02.836Z,98.00
2022-08-22T23:16:37.025Z,97.80
2022-08-22T23:19:09.431Z,97.80
2022-08-22T23:21:37.851Z,97.80
2022-08-22T23:24:08.543Z,97.80
2022-08-22T23:26:37.324Z,97.80
2022-08-22T23:29:06.712Z,98.30
2022-08-22T23:31:36.419Z,98.50
2022-08-22T23:34:07.539Z,98.50
2022-08-22T23:36:36.312Z,98.60
2022-08-22T23:39:08.471Z,98.50
2022-08-22T23:41:37.469Z,98.50
2022-08-22T23:44:07.724Z,98.60
2022-08-22T23:46:42.010Z,98.70
2022-08-22T23:49:10.536Z,98.80
2022-08-22T23:51:39.267Z,99.30
2022-08-22T23:54:09.404Z,99.30
2022-08-22T23:56:39.928Z,99.40
2022-08-22T23:59:13.294Z,99.60
